createdAt,value
2022-12-19T00:04:47.100Z,21.85
2022-12-19T00:09:55.061Z,22.90
2022-12-19T00:15:02.004Z,22.73
2022-12-19T00:20:10.971Z,16.08
2022-12-19T00:30:26.938Z,22.73
2022-12-19T00:40:43.294Z,19.17
2022-12-19T00:45:51.352Z,20.02
2022-12-19T00:51:03.883Z,19.08
2022-12-19T00:56:15.975Z,20.75
2022-12-19T01:01:25.310Z,17.65
2022-12-19T01:06:32.024Z,19.70
2022-12-19T01:11:57.406Z,16.77
2022-12-19T01:17:04.330Z,24.30
2022-12-19T01:22:11.014Z,21.73
2022-12-19T01:27:19.189Z,19.92
2022-12-19T01:32:25.697Z,21.83
2022-12-19T01:37:32.536Z,20.58
2022-12-19T01:42:41.223Z,22.58
2022-12-19T01:47:53.629Z,18.73
2022-12-19T01:53:03.161Z,19.85
2022-12-19T01:58:14.843Z,21.92
2022-12-19T02:03:27.313Z,22.77
2022-12-19T02:08:34.555Z,21.33
2022-12-19T02:13:45.799Z,19.88
2022-12-19T02:19:08.558Z,18.98
2022-12-19T02:25:07.901Z,23.48
2022-12-19T02:30:19.821Z,22.00
2022-12-19T02:35:39.036Z,26.13
2022-12-19T02:40:53.739Z,22.02
2022-12-19T02:46:05.884Z,23.55
2022-12-19T02:51:15.937Z,23.40
2022-12-19T02:56:45.675Z,23.60
2022-12-19T03:01:59.707Z,24.83
2022-12-19T03:07:19.845Z,22.25
2022-12-19T03:12:32.529Z,25.60
2022-12-19T03:17:40.409Z,24.48
2022-12-19T03:22:48.442Z,21.17
2022-12-19T03:27:56.778Z,26.90
2022-12-19T03:33:04.371Z,29.25
2022-12-19T03:38:15.744Z,27.95
2022-12-19T03:43:24.814Z,26.85
2022-12-19T03:48:41.472Z,24.73
2022-12-19T03:54:01.046Z,26.27
2022-12-19T03:59:11.866Z,28.50
2022-12-19T04:04:20.279Z,28.08
2022-12-19T04:09:28.863Z,29.17
2022-12-19T04:19:49.819Z,22.77
2022-12-19T04:25:00.951Z,21.80
2022-12-19T04:30:10.710Z,26.33
2022-12-19T04:35:18.049Z,23.23
2022-12-19T04:40:25.914Z,30.20
2022-12-19T04:45:33.188Z,20.35
2022-12-19T04:50:39.879Z,26.02
2022-12-19T04:55:48.143Z,28.92
2022-12-19T05:00:54.942Z,20.80
2022-12-19T05:06:10.585Z,30.67
2022-12-19T05:11:20.415Z,23.65
2022-12-19T05:16:26.719Z,21.08
2022-12-19T05:21:33.003Z,22.52
2022-12-19T05:26:40.731Z,23.80
2022-12-19T05:31:47.143Z,29.90
2022-12-19T05:36:53.562Z,29.48
2022-12-19T05:42:01.541Z,28.15
2022-12-19T05:47:08.465Z,27.02
2022-12-19T05:52:14.787Z,29.08
2022-12-19T05:57:22.502Z,30.35
2022-12-19T06:02:29.358Z,40.33
2022-12-19T06:07:36.687Z,26.30
2022-12-19T06:12:44.902Z,33.85
2022-12-19T06:17:54.669Z,27.15
2022-12-19T06:23:02.570Z,32.95
2022-12-19T06:28:10.399Z,31.50
2022-12-19T06:33:16.722Z,36.07
2022-12-19T06:38:23.230Z,35.42
2022-12-19T06:43:31.353Z,27.38
2022-12-19T06:48:38.146Z,33.42
2022-12-19T06:53:44.414Z,30.65
2022-12-19T06:58:52.288Z,32.15
2022-12-19T07:03:58.761Z,26.40
2022-12-19T07:09:05.833Z,26.17
2022-12-19T07:14:13.773Z,30.15
2022-12-19T07:19:21.043Z,32.53
2022-12-19T07:24:27.576Z,33.70
2022-12-19T07:29:35.528Z,32.75
2022-12-19T07:34:42.156Z,25.25
2022-12-19T07:39:48.489Z,29.75
2022-12-19T07:44:56.493Z,29.08
2022-12-19T07:50:03.740Z,37.88
2022-12-19T07:55:11.630Z,30.73
2022-12-19T08:00:22.034Z,34.40
2022-12-19T08:05:28.561Z,33.35
2022-12-19T08:10:34.960Z,30.30
2022-12-19T08:15:42.745Z,29.13
2022-12-19T08:20:49.840Z,32.80
2022-12-19T08:26:04.239Z,37.75
2022-12-19T08:31:15.412Z,32.92
2022-12-19T08:36:22.322Z,29.20
2022-12-19T08:41:29.155Z,34.08
2022-12-19T08:46:37.788Z,32.30
2022-12-19T08:51:44.271Z,31.10
2022-12-19T08:56:50.709Z,32.40
2022-12-19T09:01:58.987Z,37.90
2022-12-19T09:07:05.542Z,35.15
2022-12-19T09:12:14.063Z,30.42
2022-12-19T09:17:22.317Z,33.40
2022-12-19T09:22:29.502Z,36.70
2022-12-19T09:28:01.315Z,35.25
2022-12-19T09:33:03.825Z,41.55
2022-12-19T09:38:10.205Z,32.15
2022-12-19T09:43:41.108Z,27.75
2022-12-19T09:48:55.573Z,34.30
2022-12-19T09:54:09.092Z,33.72
2022-12-19T09:59:28.715Z,31.05
2022-12-19T10:04:52.180Z,35.20
2022-12-19T10:12:35.301Z,31.38
2022-12-19T10:15:56.128Z,25.45
2022-12-19T10:21:12.970Z,29.88
2022-12-19T10:26:23.473Z,30.15
2022-12-19T10:31:41.357Z,32.63
2022-12-19T10:42:35.172Z,31.80
2022-12-19T10:47:43.829Z,27.65
2022-12-19T10:58:12.732Z,29.73
2022-12-19T11:03:20.364Z,36.78
2022-12-19T11:08:32.476Z,38.08
2022-12-19T11:19:57.672Z,46.08
2022-12-19T11:29:17.340Z,36.67
2022-12-19T11:30:48.175Z,33.53
2022-12-19T11:35:55.921Z,31.90
2022-12-19T11:41:14.994Z,32.00
2022-12-19T11:46:42.414Z,35.25
2022-12-19T11:51:57.885Z,32.33
2022-12-19T11:57:06.030Z,44.72
2022-12-19T12:03:11.245Z,42.13
2022-12-19T12:11:00.339Z,44.83
2022-12-19T12:24:15.894Z,43.63
2022-12-19T12:31:04.395Z,40.03
2022-12-19T12:31:44.254Z,39.38
2022-12-19T12:43:19.182Z,48.50
2022-12-19T12:48:34.843Z,47.70
2022-12-19T12:53:45.894Z,38.22
2022-12-19T12:59:23.328Z,38.70
2022-12-19T13:04:35.492Z,25.48
2022-12-19T13:09:43.047Z,37.00
2022-12-19T13:14:52.402Z,32.22
2022-12-19T13:20:44.336Z,36.90
2022-12-19T13:25:54.995Z,32.80
2022-12-19T13:31:22.946Z,28.98
2022-12-19T13:42:34.333Z,34.67
2022-12-19T13:47:44.630Z,26.00
2022-12-19T13:52:53.759Z,30.42
2022-12-19T13:58:05.616Z,41.17
2022-12-19T14:03:20.490Z,29.27
2022-12-19T14:08:30.036Z,32.42
2022-12-19T14:14:10.239Z,27.48
2022-12-19T14:19:25.449Z,31.52
2022-12-19T14:24:31.956Z,27.38
2022-12-19T14:30:25.948Z,31.05
2022-12-19T14:36:06.874Z,30.75
2022-12-19T14:41:07.405Z,30.77
2022-12-19T14:54:15.970Z,28.83
2022-12-19T14:54:27.384Z,28.65
2022-12-19T14:58:07.890Z,31.45
2022-12-19T15:02:53.819Z,30.38
2022-12-19T15:08:01.837Z,28.10
2022-12-19T15:14:53.739Z,24.33
2022-12-19T15:18:59.466Z,29.25
2022-12-19T15:24:06.282Z,34.88
2022-12-19T15:29:19.825Z,32.33
2022-12-19T15:34:35.811Z,32.22
2022-12-19T15:39:45.243Z,30.42
2022-12-19T15:44:53.748Z,32.67
2022-12-19T15:50:04.230Z,36.97
2022-12-19T15:55:16.422Z,28.10
2022-12-19T16:00:26.533Z,28.30
2022-12-19T16:05:34.731Z,31.50
2022-12-19T16:10:42.257Z,37.65
2022-12-19T16:15:49.976Z,33.70
2022-12-19T16:20:58.971Z,52.10
2022-12-19T16:26:08.083Z,36.55
2022-12-19T16:31:18.305Z,37.55
2022-12-19T16:36:26.895Z,33.42
2022-12-19T16:41:33.899Z,39.80
2022-12-19T16:46:51.299Z,36.00
2022-12-19T16:51:59.826Z,33.60
2022-12-19T16:57:08.139Z,37.22
2022-12-19T17:02:42.969Z,40.40
2022-12-19T17:07:52.396Z,35.22
2022-12-19T17:13:00.785Z,39.72
2022-12-19T17:18:14.267Z,30.13
2022-12-19T17:23:26.766Z,32.97
2022-12-19T17:28:33.433Z,36.95
2022-12-19T17:33:42.123Z,31.67
2022-12-19T17:38:52.140Z,34.90
2022-12-19T17:43:59.000Z,35.22
2022-12-19T17:49:05.525Z,33.28
2022-12-19T17:54:14.760Z,34.53
2022-12-19T17:59:21.453Z,56.80
2022-12-19T18:04:29.753Z,43.28
2022-12-19T18:09:37.936Z,46.95
2022-12-19T18:14:45.018Z,40.72
2022-12-19T18:19:52.828Z,39.13
2022-12-19T18:25:16.976Z,41.45
2022-12-19T18:30:25.998Z,39.15
2022-12-19T18:35:36.557Z,41.70
2022-12-19T18:40:46.943Z,41.08
2022-12-19T18:45:54.712Z,45.67
2022-12-19T18:51:03.309Z,33.40
2022-12-19T19:01:23.735Z,40.15
2022-12-19T19:06:37.783Z,46.72
2022-12-19T19:11:46.812Z,38.10
2022-12-19T19:16:54.348Z,37.40
2022-12-19T19:22:01.160Z,43.03
2022-12-19T19:27:11.112Z,43.85
2022-12-19T19:32:20.617Z,43.83
2022-12-19T19:37:30.479Z,39.55
2022-12-19T19:42:39.065Z,39.85
2022-12-19T19:47:46.179Z,40.75
2022-12-19T19:52:53.034Z,38.67
2022-12-19T19:58:02.796Z,42.38
2022-12-19T20:03:14.080Z,46.97
2022-12-19T20:08:27.075Z,39.75
2022-12-19T20:13:35.679Z,39.72
2022-12-19T20:18:43.391Z,38.10
2022-12-19T20:23:50.390Z,44.53
2022-12-19T20:28:58.744Z,40.58
2022-12-19T20:34:07.339Z,45.28
2022-12-19T20:39:15.600Z,38.38
2022-12-19T20:44:24.835Z,36.65
2022-12-19T20:49:31.896Z,41.75
2022-12-19T20:54:39.211Z,38.97
2022-12-19T20:59:47.268Z,38.78
2022-12-19T21:04:53.716Z,39.23
2022-12-19T21:10:00.201Z,38.70
2022-12-19T21:15:09.556Z,38.47
2022-12-19T21:20:17.185Z,45.28
2022-12-19T21:25:23.967Z,40.65
2022-12-19T21:30:31.983Z,40.53
2022-12-19T21:35:39.535Z,37.25
2022-12-19T21:40:46.099Z,35.47
2022-12-19T21:46:04.806Z,38.65
2022-12-19T21:51:13.526Z,38.15
2022-12-19T21:56:26.886Z,45.85
2022-12-19T22:01:36.176Z,35.53
2022-12-19T22:06:43.463Z,39.45
2022-12-19T22:11:50.623Z,42.00
2022-12-19T22:16:58.873Z,46.75
2022-12-19T22:22:05.790Z,26.53
2022-12-19T22:27:12.415Z,40.65
2022-12-19T22:32:20.274Z,40.35
2022-12-19T22:37:27.176Z,39.05
2022-12-19T22:42:34.221Z,39.05
2022-12-19T22:47:45.099Z,34.05
2022-12-19T22:52:51.465Z,35.10
2022-12-19T22:57:57.833Z,37.63
2022-12-19T23:03:06.494Z,35.33
2022-12-19T23:08:13.350Z,39.08
2022-12-19T23:13:20.153Z,39.65
2022-12-19T23:18:28.352Z,38.58
2022-12-19T23:23:35.034Z,38.55
2022-12-19T23:28:42.223Z,40.85
2022-12-19T23:33:50.539Z,37.70
2022-12-19T23:38:57.801Z,43.85
2022-12-19T23:44:04.609Z,40.33
2022-12-19T23:49:12.270Z,40.03
2022-12-19T23:54:18.837Z,33.28
2022-12-19T23:59:25.517Z,34.88
